Briefing drone pour Saint-genis-laval

Rechercher une autre localisation

Conditions de vol :


Nous sommes le : Mardi 24 mai 2022
Il est 07:04 UTC (09:04 LT)

Lever de soleil : 03:34 UTC (05:34 LT)
Coucher de soleil : 19:41 UTC (21:41 LT)

Météo

L'essentiel des conditions de vol

VIGILANCE MÉTÉO FRANCE - Rhône (69)
Pas de vigilances particulieres
CARTES DES FRONTS
METAR de LFLL
LFLL 240700Z 34009KT 9999 FEW026 SCT066 15/08 Q1012 NOSIG

Date d'émission: 24/05/2022
Heure d'émission: 07:00 UTC
Vent: 340° pour 9 KT (17 km/h)
Visibilité horizontale: > 10 km
Plafond :
- Peu de nuages à 2600ft (792m)
- Nuages épars à 6600ft (2012m)
Température: 15 °C
Point de rosée: 8 °C
Humidité: 63%
Pression (QNH): 1012 hPa
Conditions: Pas de changement dans les 2 heures (NOSIG)
TAF de LFLL
LFLL 240500Z 2406/2512 36009KT CAVOK

Conditions prévues :

Heure d'émission : Bulletin éffectué le 24 à 06:00 UTC
Prévision : Valide du 24 a 06:00 UTC au 25 a 12:00 UTC
Vent : 360° pour 9 KT (17 km/h)
Visibilité : > 10 km
WEBCAM POUR SAINT-GENIS-LAVAL

Réglementation

Voler en sécurité

CARTES AERONAUTIQUE 1/500.000
CARTES VAC (LFLL)
SUP AIP




Chargement des AIP...
NOTAM (SAINT-GENIS-LAVAL + Terrain à proximité / FIR )




Chargement des NOTAMS...
CONTACT PREFECTURE 69


Avertissement : Les données mises à disposition sont indicatives. Oxygène Drone ne pourra être tenu responsable de dégâts causés aux biens et aux personnes.